Time;durP1;ratioP1;P1;durP2;ratioP2;P2;SDS_P1;SDS_P2;PMS_P1;PMS_P2;Temp;Humidity;BMP_temperature;BMP_pressure;BME280_temperature;BME280_humidity;BME280_pressure;Samples;Min_cycle;Max_cycle;Signal;HPM_P1;HPM_P2
2024/03/14 00:01:27;;;;;;;2.72;2.47;;;9.00;99.90;;;;;;5052537;28;20235;-74
2024/03/14 00:03:55;;;;;;;4.35;3.00;;;9.00;99.90;;;;;;5053183;28;20207;-74
2024/03/14 00:06:22;;;;;;;3.38;2.88;;;8.90;99.90;;;;;;5052975;28;20212;-74
2024/03/14 00:08:49;;;;;;;3.00;2.70;;;8.90;99.90;;;;;;5052864;28;20223;-74
2024/03/14 00:11:16;;;;;;;2.80;2.40;;;8.80;99.90;;;;;;5044429;28;20274;-74
2024/03/14 00:13:45;;;;;;;5.78;3.00;;;8.80;99.90;;;;;;5034235;28;20210;-74
2024/03/14 00:16:12;;;;;;;3.65;3.35;;;8.70;99.90;;;;;;5035116;28;20302;-74
2024/03/14 00:18:39;;;;;;;4.00;3.10;;;8.60;99.90;;;;;;5034159;28;20208;-74
2024/03/14 00:21:09;;;;;;;3.00;2.80;;;8.50;99.90;;;;;;5033735;28;20231;-74
2024/03/14 00:23:36;;;;;;;2.80;2.50;;;8.50;99.90;;;;;;5034609;28;20207;-74
2024/03/14 00:26:08;;;;;;;3.25;2.90;;;8.40;99.90;;;;;;5034372;28;20696;-74
2024/03/14 00:28:35;;;;;;;4.65;2.97;;;8.30;99.90;;;;;;5036025;28;20566;-74
2024/03/14 00:31:03;;;;;;;2.58;2.00;;;8.30;99.90;;;;;;5037613;28;20302;-74
2024/03/14 00:33:30;;;;;;;2.42;2.08;;;8.20;99.90;;;;;;5037787;28;20206;-74
2024/03/14 00:35:57;;;;;;;2.38;2.00;;;8.20;99.90;;;;;;5038204;28;20203;-73
2024/03/14 00:38:24;;;;;;;2.88;2.58;;;8.10;99.90;;;;;;5037557;28;20377;-74
2024/03/14 00:40:51;;;;;;;2.30;1.55;;;8.00;99.90;;;;;;5036992;28;20208;-74
2024/03/14 00:43:18;;;;;;;1.95;1.70;;;7.90;99.90;;;;;;5037731;28;20210;-74
2024/03/14 00:45:45;;;;;;;2.15;1.90;;;7.90;99.90;;;;;;5037132;28;20211;-74
2024/03/14 00:48:12;;;;;;;2.70;2.00;;;7.80;99.90;;;;;;5037390;28;20710;-75
2024/03/14 00:50:41;;;;;;;2.30;2.10;;;7.80;99.90;;;;;;5036173;28;20229;-74
2024/03/14 00:53:08;;;;;;;2.10;1.90;;;7.70;99.90;;;;;;5037463;28;20225;-75
2024/03/14 00:55:34;;;;;;;2.70;2.50;;;7.70;99.90;;;;;;5036661;28;20259;-74
2024/03/14 00:58:02;;;;;;;2.30;2.10;;;7.60;99.90;;;;;;5036787;28;20709;-74
2024/03/14 01:00:29;;;;;;;2.88;2.58;;;7.60;99.90;;;;;;5036252;28;20649;-74
2024/03/14 01:02:57;;;;;;;2.75;2.40;;;7.50;99.90;;;;;;5036742;28;20295;-74
2024/03/14 01:05:24;;;;;;;2.47;2.20;;;7.40;99.90;;;;;;5036420;28;20215;-74
2024/03/14 01:07:51;;;;;;;3.58;2.97;;;7.40;99.90;;;;;;5036596;28;20609;-74
2024/03/14 01:10:18;;;;;;;1.95;1.80;;;7.30;99.90;;;;;;5035852;28;20309;-74
2024/03/14 01:12:46;;;;;;;2.13;1.92;;;7.30;99.90;;;;;;5035653;28;20728;-74
2024/03/14 01:15:13;;;;;;;4.20;2.65;;;7.30;99.90;;;;;;5036389;28;20207;-74
2024/03/14 01:17:40;;;;;;;2.85;2.25;;;7.30;99.90;;;;;;5043091;28;20234;-74
2024/03/14 01:20:09;;;;;;;2.15;1.90;;;7.30;99.90;;;;;;5046896;28;20204;-74
2024/03/14 01:22:36;;;;;;;3.05;2.72;;;7.20;99.90;;;;;;5053347;28;20257;-74
2024/03/14 01:25:05;;;;;;;3.50;2.67;;;7.10;99.90;;;;;;5046597;28;20267;-75
2024/03/14 01:27:32;;;;;;;4.20;2.83;;;7.00;99.90;;;;;;5054285;28;20243;-74
2024/03/14 01:29:59;;;;;;;3.58;2.25;;;7.00;99.90;;;;;;5045428;28;20222;-74
2024/03/14 01:32:26;;;;;;;2.75;2.55;;;7.00;99.90;;;;;;5054544;28;20248;-74
2024/03/14 01:34:53;;;;;;;2.58;2.10;;;6.90;99.90;;;;;;5044481;28;20202;-74
2024/03/14 01:37:21;;;;;;;3.08;2.53;;;6.90;99.90;;;;;;5055798;28;20211;-74
2024/03/14 01:39:49;;;;;;;3.50;2.55;;;6.90;99.90;;;;;;5034902;28;20289;-74
2024/03/14 01:42:16;;;;;;;2.38;2.17;;;6.90;99.90;;;;;;5047197;28;20226;-74
2024/03/14 01:44:55;;;;;;;3.10;2.60;;;6.80;99.90;;;;;;5052600;28;20637;-74
2024/03/14 01:47:22;;;;;;;3.15;2.67;;;6.80;99.90;;;;;;5047987;28;20739;-74
2024/03/14 01:49:50;;;;;;;4.50;2.38;;;6.80;99.90;;;;;;5051012;28;20300;-74
2024/03/14 01:52:17;;;;;;;2.63;2.30;;;6.80;99.90;;;;;;5046916;28;20735;-74
2024/03/14 01:54:43;;;;;;;2.55;2.35;;;6.90;99.90;;;;;;5051516;28;20205;-74
2024/03/14 01:57:10;;;;;;;3.30;2.45;;;6.80;99.90;;;;;;5046210;28;20205;-74
2024/03/14 01:59:37;;;;;;;2.25;1.85;;;6.80;99.90;;;;;;5051164;28;20215;-74
2024/03/14 02:02:06;;;;;;;3.78;2.05;;;6.70;99.90;;;;;;5044755;28;20229;-74
2024/03/14 02:04:34;;;;;;;2.25;2.05;;;6.70;99.90;;;;;;5051419;28;20205;-74
2024/03/14 02:07:01;;;;;;;3.35;2.10;;;6.70;99.90;;;;;;5044425;28;20229;-74
2024/03/14 02:09:28;;;;;;;4.25;2.28;;;6.70;99.90;;;;;;5051094;28;20228;-74
2024/03/14 02:11:55;;;;;;;2.28;2.00;;;6.80;99.90;;;;;;5042879;28;20317;-74
2024/03/14 02:14:22;;;;;;;2.75;2.00;;;6.80;99.90;;;;;;5054977;28;20208;-74
2024/03/14 02:16:49;;;;;;;3.35;2.30;;;6.80;99.90;;;;;;5054388;28;20216;-74
2024/03/14 02:19:16;;;;;;;4.70;3.33;;;6.70;99.90;;;;;;5051013;28;20720;-74
2024/03/14 02:21:43;;;;;;;2.80;2.47;;;6.60;99.90;;;;;;5052236;28;20244;-74
2024/03/14 02:24:11;;;;;;;4.22;2.78;;;6.60;99.90;;;;;;5045082;28;20641;-74
2024/03/14 02:26:41;;;;;;;2.97;2.35;;;6.60;99.90;;;;;;5052942;28;20205;-74
2024/03/14 02:29:08;;;;;;;2.10;1.70;;;6.50;99.90;;;;;;5043919;28;20213;-75
2024/03/14 02:31:35;;;;;;;3.38;2.55;;;6.50;99.90;;;;;;5050441;28;20228;-74
2024/03/14 02:34:02;;;;;;;2.70;2.50;;;6.50;99.90;;;;;;5043353;28;20237;-73
2024/03/14 02:36:29;;;;;;;2.85;2.25;;;6.50;99.90;;;;;;5050899;28;20211;-74
2024/03/14 02:38:56;;;;;;;3.95;2.60;;;6.50;99.90;;;;;;5042362;28;20210;-74
2024/03/14 02:41:24;;;;;;;2.65;2.38;;;6.40;99.90;;;;;;5050535;28;20224;-74
2024/03/14 02:43:51;;;;;;;5.38;2.60;;;6.50;99.90;;;;;;5048680;28;20205;-74
2024/03/14 02:46:18;;;;;;;3.65;2.35;;;6.40;99.90;;;;;;5044951;28;20628;-74
2024/03/14 02:48:45;;;;;;;2.78;2.58;;;6.40;99.90;;;;;;5050609;28;20206;-73
2024/03/14 02:51:13;;;;;;;5.80;3.22;;;6.40;99.90;;;;;;5042703;28;20712;-74
2024/03/14 02:53:40;;;;;;;2.72;2.40;;;6.40;99.90;;;;;;5050046;28;21776;-74
2024/03/14 02:56:08;;;;;;;2.58;2.22;;;6.40;99.90;;;;;;5042995;28;20205;-74
2024/03/14 02:58:36;;;;;;;3.47;2.65;;;6.40;99.90;;;;;;5053289;28;20217;-73
2024/03/14 03:01:08;;;;;;;3.13;2.20;;;6.30;99.90;;;;;;5041341;28;20237;-73
2024/03/14 03:03:36;;;;;;;3.13;2.15;;;6.30;99.90;;;;;;5050501;28;20627;-74
2024/03/14 03:06:05;;;;;;;2.58;1.85;;;6.20;99.90;;;;;;5042253;28;20619;-73
2024/03/14 03:08:32;;;;;;;4.75;2.42;;;6.20;99.90;;;;;;5050217;28;20209;-74
2024/03/14 03:10:59;;;;;;;2.55;2.25;;;6.20;99.90;;;;;;5040293;28;20221;-73
2024/03/14 03:13:26;;;;;;;2.70;2.28;;;6.20;99.90;;;;;;5050533;28;20597;-74
2024/03/14 03:15:53;;;;;;;3.25;2.50;;;6.10;99.90;;;;;;5046909;28;20205;-74
2024/03/14 03:18:19;;;;;;;2.75;2.53;;;6.10;99.90;;;;;;5043680;28;20295;-74
2024/03/14 03:20:46;;;;;;;3.28;2.22;;;6.10;99.90;;;;;;5051336;28;20200;-74
2024/03/14 03:23:17;;;;;;;3.78;2.35;;;6.00;99.90;;;;;;5053813;28;20250;-73
2024/03/14 03:25:43;;;;;;;3.08;2.65;;;6.00;99.90;;;;;;5052323;28;20200;-74
2024/03/14 03:28:10;;;;;;;3.08;2.53;;;6.00;99.90;;;;;;5041680;28;20216;-73
2024/03/14 03:30:37;;;;;;;4.13;2.42;;;6.00;99.90;;;;;;5049174;28;20224;-74
2024/03/14 03:33:05;;;;;;;2.15;1.95;;;5.90;99.90;;;;;;5040665;28;20232;-73
2024/03/14 03:35:33;;;;;;;4.45;3.00;;;5.90;99.90;;;;;;5050150;28;20209;-74
2024/03/14 03:38:00;;;;;;;2.90;2.70;;;5.90;99.90;;;;;;5047394;28;20201;-74
2024/03/14 03:40:35;;;;;;;2.30;2.05;;;6.00;99.90;;;;;;5052952;28;20215;-74
2024/03/14 03:43:02;;;;;;;2.80;2.28;;;6.00;99.90;;;;;;5048637;28;20224;-74
2024/03/14 03:45:28;;;;;;;5.85;2.90;;;6.00;99.90;;;;;;5053450;28;20204;-74
2024/03/14 03:47:55;;;;;;;4.00;2.65;;;6.00;99.90;;;;;;5053197;28;20212;-73
2024/03/14 03:50:21;;;;;;;3.88;3.15;;;6.00;99.90;;;;;;5052924;28;20303;-74
2024/03/14 03:52:47;;;;;;;3.22;2.90;;;6.00;99.90;;;;;;5052457;28;20311;-74
2024/03/14 03:55:16;;;;;;;3.40;3.10;;;6.00;99.90;;;;;;5053132;28;20204;-73
2024/03/14 03:57:42;;;;;;;4.55;3.75;;;6.00;99.90;;;;;;5046042;28;20514;-74
2024/03/14 04:00:32;;;;;;;4.45;3.97;;;6.10;99.90;;;;;;5037249;28;20202;-74
2024/03/14 04:02:57;;;;;;;3.60;3.25;;;6.10;99.90;;;;;;5040285;28;20311;-73
2024/03/14 04:05:25;;;;;;;3.73;3.40;;;6.20;99.90;;;;;;5035421;28;20208;-73
2024/03/14 04:07:51;;;;;;;4.47;3.20;;;6.20;99.90;;;;;;5037124;28;20917;-73
2024/03/14 04:10:18;;;;;;;3.80;3.50;;;6.20;99.90;;;;;;5041812;28;20734;-73
2024/03/14 04:12:44;;;;;;;7.20;4.20;;;6.20;99.90;;;;;;5055911;28;20216;-73
2024/03/14 04:15:11;;;;;;;5.10;3.65;;;6.30;99.90;;;;;;5038828;28;20209;-73
2024/03/14 04:17:38;;;;;;;4.63;4.00;;;6.30;99.90;;;;;;5056467;28;20197;-74
2024/03/14 04:20:11;;;;;;;5.22;3.88;;;6.40;99.90;;;;;;5037965;28;20220;-73
2024/03/14 04:22:39;;;;;;;4.88;4.10;;;6.40;99.90;;;;;;5058368;28;20282;-73
2024/03/14 04:25:10;;;;;;;5.68;4.28;;;6.40;99.90;;;;;;5034582;28;20206;-73
2024/03/14 04:27:38;;;;;;;3.47;3.17;;;6.40;99.90;;;;;;5040080;28;20201;-74
2024/03/14 04:30:07;;;;;;;4.00;3.40;;;6.40;99.90;;;;;;5039280;28;20217;-74
2024/03/14 04:32:33;;;;;;;3.60;3.30;;;6.40;99.90;;;;;;5035488;28;20305;-73
2024/03/14 04:35:01;;;;;;;5.38;4.20;;;6.40;99.90;;;;;;5037828;28;20197;-73
2024/03/14 04:37:29;;;;;;;3.55;2.95;;;6.40;99.90;;;;;;5036952;28;20283;-73
2024/03/14 04:39:56;;;;;;;5.40;4.45;;;6.40;99.90;;;;;;5042332;28;20248;-73
2024/03/14 04:42:22;;;;;;;5.40;3.90;;;6.40;99.90;;;;;;5045364;28;20224;-73
2024/03/14 04:44:50;;;;;;;6.95;4.07;;;6.40;99.90;;;;;;5050167;28;20209;-73
2024/03/14 04:47:17;;;;;;;4.45;3.50;;;6.40;99.90;;;;;;5047974;28;20757;-73
2024/03/14 04:49:45;;;;;;;5.38;3.92;;;6.40;99.90;;;;;;5045396;28;20690;-73
2024/03/14 04:52:14;;;;;;;5.35;4.18;;;6.40;99.90;;;;;;5042318;28;20224;-73
2024/03/14 04:54:42;;;;;;;4.25;3.67;;;6.40;99.90;;;;;;5050898;28;20270;-73
2024/03/14 04:57:09;;;;;;;5.20;4.00;;;6.40;99.90;;;;;;5032650;28;20209;-73
2024/03/14 04:59:36;;;;;;;6.03;3.90;;;6.30;99.90;;;;;;5041691;28;20212;-72
2024/03/14 05:02:03;;;;;;;7.55;4.57;;;6.30;99.90;;;;;;5042178;28;20331;-72
2024/03/14 05:04:30;;;;;;;5.75;4.13;;;6.30;99.90;;;;;;5039675;28;20674;-72
2024/03/14 05:06:56;;;;;;;5.63;3.85;;;6.30;99.90;;;;;;5042731;28;20210;-71
2024/03/14 05:09:23;;;;;;;6.82;4.57;;;6.40;99.90;;;;;;5039570;28;20220;-72
2024/03/14 05:11:50;;;;;;;5.82;4.55;;;6.40;99.90;;;;;;5042476;28;20471;-72
2024/03/14 05:14:17;;;;;;;5.57;4.85;;;6.40;99.90;;;;;;5048835;28;20205;-72
2024/03/14 05:16:44;;;;;;;4.78;3.80;;;6.40;99.90;;;;;;5055249;28;20554;-71
2024/03/14 05:19:15;;;;;;;6.15;4.50;;;6.40;99.90;;;;;;5041222;28;20208;-71
2024/03/14 05:21:43;;;;;;;8.77;5.65;;;6.40;99.90;;;;;;5052192;28;20229;-72
2024/03/14 05:24:10;;;;;;;7.30;4.90;;;6.40;99.90;;;;;;5046102;28;20251;-72
2024/03/14 05:26:37;;;;;;;8.10;4.95;;;6.30;99.90;;;;;;5044779;28;20201;-72
2024/03/14 05:29:04;;;;;;;8.80;5.60;;;6.30;99.90;;;;;;5051812;28;20216;-72
2024/03/14 05:31:31;;;;;;;8.15;5.20;;;6.30;99.90;;;;;;5055341;28;20216;-72
2024/03/14 05:33:58;;;;;;;10.57;5.72;;;6.30;99.90;;;;;;5055428;28;20224;-72
2024/03/14 05:36:24;;;;;;;8.40;5.30;;;6.30;99.90;;;;;;5055822;28;20209;-72
2024/03/14 05:38:51;;;;;;;18.88;6.05;;;6.30;99.90;;;;;;5055082;28;20204;-71
2024/03/14 05:41:19;;;;;;;7.97;4.55;;;6.40;99.90;;;;;;5054247;28;20213;-72
2024/03/14 05:43:46;;;;;;;9.20;5.25;;;6.40;99.90;;;;;;5052039;28;20582;-72
2024/03/14 05:46:13;;;;;;;7.38;4.40;;;6.40;99.90;;;;;;5051895;28;20223;-72
2024/03/14 05:48:40;;;;;;;7.72;5.65;;;6.40;99.90;;;;;;5043994;28;20232;-72
2024/03/14 05:51:09;;;;;;;8.27;5.10;;;6.40;99.90;;;;;;5043848;28;20738;-71
2024/03/14 05:53:35;;;;;;;11.30;6.32;;;6.50;99.90;;;;;;5043189;28;20201;-72
2024/03/14 05:56:02;;;;;;;7.93;5.75;;;6.50;99.90;;;;;;5044194;28;20206;-71
2024/03/14 05:58:30;;;;;;;9.77;5.43;;;6.50;99.90;;;;;;5042434;28;20208;-72
2024/03/14 06:00:57;;;;;;;10.45;5.45;;;6.50;99.90;;;;;;5044917;28;20214;-72
2024/03/14 06:03:24;;;;;;;9.55;5.57;;;6.50;99.90;;;;;;5054986;28;20201;-72
2024/03/14 06:05:52;;;;;;;10.63;6.43;;;6.50;99.90;;;;;;5054853;28;20205;-71
2024/03/14 06:08:19;;;;;;;11.52;6.13;;;6.60;99.90;;;;;;5055231;28;20208;-72
2024/03/14 06:10:45;;;;;;;11.23;5.57;;;6.60;99.90;;;;;;5050640;28;20220;-71
2024/03/14 06:13:14;;;;;;;9.60;5.70;;;6.60;99.90;;;;;;5054666;28;20209;-72
2024/03/14 06:15:41;;;;;;;10.07;5.65;;;6.70;99.90;;;;;;5055295;28;20208;-71
2024/03/14 06:18:08;;;;;;;9.27;5.50;;;6.70;99.90;;;;;;5054496;28;20209;-72
2024/03/14 06:20:35;;;;;;;9.05;5.55;;;6.70;99.90;;;;;;5054356;28;20239;-72
2024/03/14 06:23:02;;;;;;;12.05;6.35;;;6.70;99.90;;;;;;5054299;28;20240;-72
2024/03/14 06:25:29;;;;;;;8.02;5.38;;;6.80;99.90;;;;;;5054661;28;20296;-72
2024/03/14 06:27:56;;;;;;;10.30;6.35;;;6.80;99.90;;;;;;5054248;28;20587;-71
2024/03/14 06:30:22;;;;;;;9.40;6.22;;;6.90;99.90;;;;;;5054322;28;20206;-71
2024/03/14 06:32:50;;;;;;;6.57;4.80;;;6.90;99.90;;;;;;5054239;28;20220;-72
2024/03/14 06:35:17;;;;;;;9.23;5.97;;;6.90;99.90;;;;;;5050877;28;20208;-72
2024/03/14 06:37:44;;;;;;;11.55;5.93;;;7.00;99.90;;;;;;5054368;28;20212;-72
2024/03/14 06:40:13;;;;;;;8.52;5.75;;;7.00;99.90;;;;;;5053762;28;20212;-72
2024/03/14 06:42:40;;;;;;;10.65;5.90;;;7.10;99.90;;;;;;5054540;28;20229;-72
2024/03/14 06:45:10;;;;;;;8.30;6.97;;;7.10;99.90;;;;;;5054015;28;20212;-72
2024/03/14 06:47:38;;;;;;;9.45;5.60;;;7.10;99.90;;;;;;5054823;28;20291;-72
2024/03/14 06:50:06;;;;;;;7.43;5.35;;;7.10;99.90;;;;;;5054021;28;20205;-72
2024/03/14 06:52:34;;;;;;;7.45;5.15;;;7.20;99.90;;;;;;5054213;28;20222;-72
2024/03/14 06:55:01;;;;;;;9.07;5.75;;;7.30;99.90;;;;;;5054138;28;20233;-72
2024/03/14 06:57:28;;;;;;;9.85;5.78;;;7.30;99.90;;;;;;5053970;28;20701;-72
2024/03/14 06:59:55;;;;;;;8.50;6.05;;;7.30;99.90;;;;;;5053859;28;20196;-72
2024/03/14 07:02:21;;;;;;;5.90;4.68;;;7.30;99.90;;;;;;5053619;28;20600;-72
2024/03/14 07:04:48;;;;;;;6.95;4.40;;;7.40;99.90;;;;;;5054088;28;20588;-71
2024/03/14 07:07:16;;;;;;;7.00;5.20;;;7.50;99.90;;;;;;5053668;28;20205;-72
2024/03/14 07:09:43;;;;;;;10.75;5.28;;;7.50;99.90;;;;;;5053734;28;20221;-72
2024/03/14 07:12:10;;;;;;;7.13;4.30;;;7.50;99.90;;;;;;5053114;28;20638;-72
2024/03/14 07:14:37;;;;;;;7.47;5.30;;;7.50;99.90;;;;;;5053905;28;20248;-72
2024/03/14 07:17:05;;;;;;;10.50;5.32;;;7.50;99.90;;;;;;5053662;28;20683;-72
2024/03/14 07:19:32;;;;;;;10.05;6.00;;;7.60;99.90;;;;;;5053547;28;20233;-72
2024/03/14 07:21:59;;;;;;;6.97;5.00;;;7.70;99.90;;;;;;5053061;28;20315;-71
2024/03/14 07:24:26;;;;;;;7.82;4.78;;;7.80;99.90;;;;;;5053784;28;20213;-72
2024/03/14 07:26:53;;;;;;;6.28;4.82;;;7.90;99.90;;;;;;5053649;28;20579;-72
2024/03/14 07:29:20;;;;;;;7.75;5.10;;;7.80;99.90;;;;;;5050101;28;20214;-71
2024/03/14 07:31:47;;;;;;;5.35;3.20;;;7.90;99.90;;;;;;5033282;28;20227;-72
2024/03/14 07:34:15;;;;;;;6.72;4.53;;;8.00;99.90;;;;;;5040340;28;20204;-72
2024/03/14 07:36:44;;;;;;;6.55;4.45;;;8.10;99.90;;;;;;5040159;28;20203;-72
2024/03/14 07:39:14;;;;;;;6.32;4.43;;;8.10;99.90;;;;;;5052180;28;20207;-72
2024/03/14 07:41:41;;;;;;;7.78;5.05;;;8.20;99.90;;;;;;5054025;28;20299;-72
2024/03/14 07:44:09;;;;;;;5.85;4.07;;;8.30;99.90;;;;;;5053701;28;20207;-72
2024/03/14 07:46:36;;;;;;;8.00;5.55;;;8.30;99.90;;;;;;5054009;28;20212;-72
2024/03/14 07:49:02;;;;;;;5.78;4.45;;;8.40;99.90;;;;;;5052561;28;20564;-72
2024/03/14 07:51:29;;;;;;;6.68;4.85;;;8.60;99.90;;;;;;5053707;28;20222;-72
2024/03/14 07:53:56;;;;;;;8.10;4.43;;;8.70;99.90;;;;;;5053771;28;20285;-72
2024/03/14 07:56:25;;;;;;;8.88;4.30;;;8.70;99.90;;;;;;5053174;28;20669;-72
2024/03/14 07:58:52;;;;;;;5.75;4.35;;;9.00;99.90;;;;;;5054396;28;20200;-72
2024/03/14 08:01:19;;;;;;;7.28;3.92;;;9.20;99.90;;;;;;5052777;28;20227;-72
2024/03/14 08:03:47;;;;;;;6.30;4.13;;;9.60;99.90;;;;;;5048077;28;20235;-72
2024/03/14 08:06:16;;;;;;;6.10;4.65;;;9.80;99.90;;;;;;5053272;28;20211;-72
2024/03/14 08:08:43;;;;;;;5.18;3.90;;;9.90;99.90;;;;;;5053548;28;20579;-72
2024/03/14 08:11:11;;;;;;;6.15;3.80;;;10.10;99.90;;;;;;5053001;28;20284;-72
2024/03/14 08:13:39;;;;;;;6.25;4.10;;;10.40;99.90;;;;;;5053638;28;20208;-72
2024/03/14 08:16:14;;;;;;;4.88;3.72;;;10.90;99.90;;;;;;5052836;28;20209;-72
2024/03/14 08:18:41;;;;;;;4.68;3.10;;;11.50;99.90;;;;;;5054100;28;20215;-72
2024/03/14 08:21:09;;;;;;;4.43;3.53;;;12.20;99.90;;;;;;5052111;28;20228;-72
2024/03/14 08:23:36;;;;;;;6.00;4.20;;;12.20;99.90;;;;;;5053337;28;20578;-71
2024/03/14 08:26:03;;;;;;;4.80;3.25;;;12.40;99.90;;;;;;5053663;28;20208;-72
2024/03/14 08:28:30;;;;;;;4.93;3.05;;;12.50;99.90;;;;;;5053851;28;20204;-72
2024/03/14 08:30:58;;;;;;;3.13;2.70;;;12.70;99.90;;;;;;5052569;28;20208;-73
2024/03/14 08:33:25;;;;;;;3.92;3.22;;;12.80;99.90;;;;;;5053142;28;20228;-72
2024/03/14 08:35:52;;;;;;;4.30;2.97;;;13.10;99.90;;;;;;5053833;28;20715;-72
2024/03/14 08:38:19;;;;;;;3.63;2.97;;;13.20;99.90;;;;;;5053726;28;20208;-72
2024/03/14 08:40:47;;;;;;;4.23;3.43;;;13.00;99.90;;;;;;5052741;28;20212;-73
2024/03/14 08:43:13;;;;;;;4.15;3.35;;;13.10;99.90;;;;;;5052514;28;20455;-73
2024/03/14 08:45:40;;;;;;;5.07;3.03;;;13.40;99.90;;;;;;5052832;28;20606;-72
2024/03/14 08:48:08;;;;;;;3.83;3.07;;;14.00;99.90;;;;;;5052324;28;20463;-73
2024/03/14 08:50:35;;;;;;;4.57;3.57;;;14.50;99.90;;;;;;5053967;28;20486;-72
2024/03/14 08:53:02;;;;;;;4.40;3.43;;;14.80;99.90;;;;;;5057251;28;20498;-73
2024/03/14 08:55:33;;;;;;;3.60;3.30;;;14.70;99.90;;;;;;5053918;28;20455;-72
2024/03/14 08:58:03;;;;;;;4.43;3.00;;;14.60;99.90;;;;;;5057108;28;20458;-72
2024/03/14 09:00:31;;;;;;;3.30;2.67;;;14.80;99.90;;;;;;5054455;28;20486;-73
2024/03/14 09:03:00;;;;;;;3.77;3.10;;;15.60;99.90;;;;;;5057607;28;21050;-73
2024/03/14 09:05:27;;;;;;;3.73;2.70;;;16.50;99.90;;;;;;5057075;28;20458;-73
2024/03/14 09:07:54;;;;;;;3.60;3.00;;;16.80;99.90;;;;;;5057384;28;20465;-72
2024/03/14 09:10:25;;;;;;;4.30;3.33;;;17.00;99.90;;;;;;5056470;28;20482;-72
2024/03/14 09:12:52;;;;;;;2.80;2.43;;;17.40;99.90;;;;;;5057486;28;20903;-73
2024/03/14 09:15:20;;;;;;;4.50;2.73;;;17.20;99.90;;;;;;5056679;28;20823;-73
2024/03/14 09:17:47;;;;;;;3.47;2.60;;;17.20;99.90;;;;;;5051409;28;20481;-73
2024/03/14 09:20:16;;;;;;;2.53;2.30;;;17.40;99.90;;;;;;5056560;28;20954;-73
2024/03/14 09:22:43;;;;;;;2.30;1.87;;;18.30;99.90;;;;;;5056935;28;20478;-74
2024/03/14 09:25:12;;;;;;;1.93;1.77;;;18.60;99.90;;;;;;5056621;28;20942;-73
2024/03/14 09:27:39;;;;;;;2.57;2.37;;;19.10;99.90;;;;;;5056957;28;20462;-73
2024/03/14 09:30:08;;;;;;;2.67;2.30;;;19.10;99.90;;;;;;5053433;28;20530;-74
2024/03/14 09:32:35;;;;;;;3.47;3.17;;;18.70;99.90;;;;;;5051339;28;20926;-73
2024/03/14 09:35:05;;;;;;;3.47;2.23;;;18.50;99.90;;;;;;5040462;28;20479;-74
2024/03/14 09:37:32;;;;;;;7.23;1.80;;;18.90;99.90;;;;;;5040295;28;20463;-73
2024/03/14 09:39:59;;;;;;;2.43;2.10;;;18.80;99.90;;;;;;5039970;28;20463;-73
2024/03/14 09:42:27;;;;;;;2.60;2.20;;;18.10;99.90;;;;;;5054899;28;20482;-73
2024/03/14 09:44:54;;;;;;;1.63;1.50;;;17.10;99.90;;;;;;5056614;28;20954;-73
2024/03/14 09:47:22;;;;;;;1.63;1.53;;;16.70;99.90;;;;;;5056760;28;20458;-73
2024/03/14 09:49:49;;;;;;;1.83;1.60;;;16.10;99.90;;;;;;5036997;28;20467;-73
2024/03/14 09:52:16;;;;;;;2.90;1.90;;;15.20;99.90;;;;;;5039243;28;20490;-73
2024/03/14 09:54:43;;;;;;;2.00;1.70;;;14.90;99.90;;;;;;5039020;28;20459;-73
2024/03/14 09:57:10;;;;;;;2.00;1.80;;;14.90;99.90;;;;;;5038344;28;20467;-72
2024/03/14 09:59:37;;;;;;;2.40;1.77;;;14.80;99.90;;;;;;5036860;28;20470;-73
2024/03/14 10:02:06;;;;;;;1.87;1.63;;;14.70;99.90;;;;;;5038337;28;20475;-73
2024/03/14 10:04:33;;;;;;;1.67;1.57;;;15.20;99.90;;;;;;5039448;28;20471;-73
2024/03/14 10:07:00;;;;;;;1.33;1.10;;;16.00;99.90;;;;;;5039114;28;20468;-73
2024/03/14 10:09:29;;;;;;;1.33;1.10;;;16.40;99.90;;;;;;5038066;28;20459;-73
2024/03/14 10:12:00;;;;;;;1.70;1.33;;;16.70;99.90;;;;;;5038768;28;20515;-73
2024/03/14 10:14:27;;;;;;;1.40;1.30;;;17.10;99.90;;;;;;5039177;28;20466;-73
2024/03/14 10:16:53;;;;;;;1.40;1.20;;;17.60;99.90;;;;;;5038715;28;20967;-74
2024/03/14 10:19:20;;;;;;;1.30;1.13;;;17.90;99.90;;;;;;5037963;28;20778;-73
2024/03/14 10:21:49;;;;;;;1.40;1.13;;;17.60;99.90;;;;;;5048512;28;20482;-73
2024/03/14 10:24:17;;;;;;;1.97;1.10;;;17.60;99.90;;;;;;5055975;28;20513;-74
2024/03/14 10:26:45;;;;;;;1.57;1.20;;;18.30;99.90;;;;;;5055465;28;20469;-74
2024/03/14 10:29:14;;;;;;;1.97;1.23;;;19.20;99.90;;;;;;5052084;28;20875;-73
2024/03/14 10:31:43;;;;;;;1.10;1.00;;;19.50;99.90;;;;;;5055132;28;20474;-73
2024/03/14 10:34:09;;;;;;;2.30;1.20;;;19.30;99.90;;;;;;5055794;28;20589;-74
2024/03/14 10:36:39;;;;;;;1.13;1.00;;;20.20;99.90;;;;;;5055201;28;20461;-74
2024/03/14 10:39:08;;;;;;;1.27;1.10;;;21.00;99.90;;;;;;5055567;28;20491;-73
2024/03/14 10:41:35;;;;;;;0.90;0.80;;;21.80;99.90;;;;;;5054945;28;20481;-73
2024/03/14 10:44:01;;;;;;;1.23;1.13;;;22.80;99.90;;;;;;5055575;28;20447;-74
2024/03/14 10:46:29;;;;;;;1.27;1.10;;;23.00;99.90;;;;;;5054666;28;20471;-73
2024/03/14 10:48:56;;;;;;;1.27;1.17;;;22.30;99.90;;;;;;5055325;28;20928;-74
2024/03/14 10:51:22;;;;;;;1.03;0.93;;;22.40;99.90;;;;;;5054292;28;21012;-74
2024/03/14 10:53:50;;;;;;;4.70;1.40;;;21.40;99.90;;;;;;5055539;28;20486;-74
2024/03/14 10:56:20;;;;;;;1.00;0.87;;;20.70;99.90;;;;;;5055418;28;20465;-73
2024/03/14 10:58:47;;;;;;;0.93;0.83;;;20.30;99.90;;;;;;5048387;28;20467;-73
2024/03/14 11:01:14;;;;;;;1.20;0.97;;;20.10;99.90;;;;;;5053782;28;20475;-73
2024/03/14 11:03:42;;;;;;;1.33;0.90;;;19.30;99.90;;;;;;5035475;28;20996;-73
2024/03/14 11:06:10;;;;;;;1.00;0.90;;;18.20;99.90;;;;;;5035695;28;20467;-73
2024/03/14 11:08:39;;;;;;;1.10;1.00;;;17.90;99.90;;;;;;5035141;28;20972;-73
2024/03/14 11:11:06;;;;;;;1.77;1.20;;;18.20;99.90;;;;;;5035053;28;20917;-73
2024/03/14 11:13:33;;;;;;;1.40;1.30;;;18.90;99.90;;;;;;5035137;28;20486;-76
2024/03/14 11:16:00;;;;;;;1.20;0.83;;;19.50;99.90;;;;;;5055232;28;20459;-73
2024/03/14 11:18:28;;;;;;;0.90;0.80;;;19.70;99.90;;;;;;5053431;28;20516;-73
2024/03/14 11:20:55;;;;;;;1.27;1.13;;;20.00;99.90;;;;;;5053123;28;20469;-73
2024/03/14 11:23:23;;;;;;;1.20;1.10;;;20.20;99.90;;;;;;5053528;28;20455;-73
2024/03/14 11:25:52;;;;;;;2.97;1.07;;;20.20;99.90;;;;;;5053956;28;20494;-73
2024/03/14 11:28:19;;;;;;;1.20;1.00;;;20.10;99.90;;;;;;5053802;28;20466;-73
2024/03/14 11:30:51;;;;;;;1.00;0.83;;;19.90;99.90;;;;;;5052877;28;21249;-73
2024/03/14 11:33:18;;;;;;;1.03;0.93;;;19.10;99.90;;;;;;5053674;28;20514;-73
2024/03/14 11:35:47;;;;;;;1.00;0.80;;;19.00;99.90;;;;;;5053323;28;20545;-73
2024/03/14 11:38:28;;;;;;;0.80;0.70;;;18.80;99.90;;;;;;5053771;28;20455;-73
2024/03/14 11:40:55;;;;;;;1.20;1.10;;;18.70;99.90;;;;;;5063601;28;20459;-73
2024/03/14 11:43:22;;;;;;;1.20;0.87;;;18.60;99.90;;;;;;5053767;28;20538;-74
2024/03/14 11:45:54;;;;;;;1.20;1.00;;;19.00;99.90;;;;;;5053814;28;20877;-74
2024/03/14 11:48:21;;;;;;;1.00;0.90;;;20.20;99.90;;;;;;5053389;28;20455;-73
2024/03/14 11:50:48;;;;;;;1.00;0.83;;;21.60;99.90;;;;;;5052579;28;20516;-74
2024/03/14 11:53:16;;;;;;;0.87;0.70;;;22.60;99.90;;;;;;5053365;28;20490;-74
2024/03/14 11:55:44;;;;;;;0.97;0.87;;;23.30;99.90;;;;;;5053191;28;20458;-74
2024/03/14 11:58:15;;;;;;;1.10;0.93;;;23.70;99.90;;;;;;5053410;28;20486;-74
2024/03/14 12:00:41;;;;;;;1.30;1.00;;;24.20;99.30;;;;;;5052534;28;20462;-74
2024/03/14 12:03:09;;;;;;;1.30;0.97;;;23.90;98.60;;;;;;5053052;28;20482;-74
2024/03/14 12:05:41;;;;;;;0.80;0.80;;;24.10;99.30;;;;;;5050784;28;20454;-74
2024/03/14 12:08:12;;;;;;;0.90;0.77;;;23.30;98.40;;;;;;5044436;28;20525;-74
2024/03/14 12:10:39;;;;;;;1.00;0.90;;;23.40;98.70;;;;;;5048569;28;20452;-74
2024/03/14 12:13:11;;;;;;;0.90;0.73;;;23.60;97.70;;;;;;5043568;28;20560;-74
2024/03/14 12:15:38;;;;;;;0.90;0.80;;;23.70;98.40;;;;;;5049325;28;20455;-74
2024/03/14 12:18:06;;;;;;;1.00;0.70;;;23.60;98.50;;;;;;5043540;28;20464;-74
2024/03/14 12:20:33;;;;;;;0.90;0.80;;;23.90;98.30;;;;;;5048468;28;20456;-74
2024/03/14 12:23:00;;;;;;;1.70;1.03;;;24.00;98.50;;;;;;5042387;28;20491;-74
2024/03/14 12:25:27;;;;;;;1.00;0.80;;;24.50;97.60;;;;;;5055229;28;20463;-72
2024/03/14 12:27:55;;;;;;;1.30;1.13;;;24.70;98.00;;;;;;5045581;28;20884;-72
2024/03/14 12:30:22;;;;;;;1.33;0.93;;;25.40;97.50;;;;;;5057916;28;20509;-72
2024/03/14 12:32:54;;;;;;;1.40;0.80;;;26.20;97.40;;;;;;5056740;28;20494;-72
2024/03/14 12:35:22;;;;;;;1.20;1.10;;;26.80;97.00;;;;;;5058347;28;20458;-72
2024/03/14 12:37:49;;;;;;;1.60;1.23;;;27.00;96.50;;;;;;5037305;28;20463;-72
2024/03/14 12:40:19;;;;;;;1.20;1.00;;;27.30;96.00;;;;;;5048334;28;20459;-73
2024/03/14 12:42:47;;;;;;;1.30;1.00;;;27.10;95.60;;;;;;5053917;28;20851;-72
2024/03/14 12:45:14;;;;;;;1.13;1.00;;;26.50;95.40;;;;;;5048185;28;20459;-72
2024/03/14 12:47:42;;;;;;;1.10;0.90;;;26.10;95.80;;;;;;5053234;28;20497;-73
2024/03/14 12:50:22;;;;;;;1.87;1.30;;;26.00;95.90;;;;;;5046901;28;20960;-73
2024/03/14 12:53:03;;;;;;;1.20;1.10;;;26.20;96.20;;;;;;5053281;28;20494;-72
2024/03/14 12:55:31;;;;;;;1.37;1.27;;;26.70;96.70;;;;;;5050658;28;20463;-72